Details From EDHI - Hamburg Finkenwerder
To ETNL - Laage
Flight Number -
Tags generated
Created
Modified
Stats Distance 90 nm / 166 km
Max Altitude 9,500 ft / 2,896 m
Waypoints 3
Social Downloads 1
Likes 0
Share VATSIM

Download

Looking for another format? Having issues loading an existing format? Contact us
Advertisement - Login to hide

Notes

Basic altitude profile: - Ascent Rate: 2500ft/min - Ascent Speed: 250kts - Cruise Altitude: 35000ft - Cruise Speed: 420kts - Descent Rate: 1500ft/min - Descent Speed: 250kts Options: - Use NATs: yes - Use PACOTS: yes - Use low airways: yes - Use high airways: yes

Route

EDHI RAMAR ETNL

ID Type Via Altitude Latitude Longitude Leg Dist Tot Dist Heading (true) Name
O EDHI APT - 0 ft / 0 m 53.53591˚ 9.83707˚ - 0 nm - Hamburg Finkenwerder
RAMAR FIX - 9,500 ft / 2,896 m 53.71083˚ 10.93889˚ 40 nm 40 nm 75° / 75° -
O ETNL APT - 0 ft / 0 m 53.91808˚ 12.27925˚ 49 nm 89 nm 75° / 76° Laage

Altitude Profile

Advertisement - Login to hide

EDHI

Details ICAO EDHI (XFW)
Name Hamburg Finkenwerder
Region Germany - Civil
Timezone Europe/Berlin (UTC+1.0)
Stats Elevation 21 ft / 6 m (AMSL)
Location 53.535910° 9.837071°
Runways 1
Magnetic Variation 2.737° E

METAR

EDHI 131250Z 18010G25KT 130V210 9999 -RASN BKN010 BKN018 03/01 Q0998

Decode

TAF

Not found

Departure Runways

ID Width Length Bearing (true) Bearing (mag) Surface Threshold Offset Overrun Length
05 148 ft / 45 m 8,628 ft / 2,630 m 51.57° 48.83° Asphalt 341 ft / 104 m 341 ft / 104 m
23 148 ft / 45 m 8,628 ft / 2,630 m 231.59° 228.85° Asphalt 2,474 ft / 754 m 328 ft / 100 m

ETNL

Details ICAO ETNL (RLG)
Name Laage
Region Germany - Military
Timezone Europe/Berlin (UTC+1.0)
Stats Elevation 138 ft / 42 m (AMSL)
Location 53.918084° 12.279250°
Runways 1
Magnetic Variation 3.518° E

METAR

ETNL 131255Z 19011G21KT 9999 FEW050 BKN100 03/M01 Q1001 BLU BLU

Decode

TAF

Not found

Destination Runways

ID Width Length Bearing (true) Bearing (mag) Surface Threshold Offset Overrun Length
10 148 ft / 45 m 8,213 ft / 2,503 m 98.07° 94.55° Concrete 0 ft / 0 m 1,001 ft / 305 m
28 148 ft / 45 m 8,213 ft / 2,503 m 278.10° 274.58° Concrete 0 ft / 0 m 1,001 ft / 305 m

Approach Navaids

Runway Type Ident Frequency Range Bearing (true) Bearing (mag) Slope Elevation
10 Localiser ILAE 108.55 MHz 18 nm / 33 km 97.79° 94.28° - 128 ft / 39 m (AMSL)
10 Glidescope ILAE 108.55 MHz 10 nm / 19 km 98.09° 94.57° 3.00° 186 ft / 57 m (AMSL)
28 Localiser ILAW 108.30 MHz 18 nm / 33 km 277.98° 274.46° - 157 ft / 48 m (AMSL)
28 Glidescope ILAW 108.30 MHz 10 nm / 19 km 278.09° 274.57° 3.00° 159 ft / 48 m (AMSL)